sensor_id;sensor_type;location;lat;lon;timestamp;P1;durP1;ratioP1;P2;durP2;ratioP2
26042;SDS011;13818;52.156;5.382;2023-03-19T00:01:58;2.90;;;1.30;;
26042;SDS011;13818;52.156;5.382;2023-03-19T00:04:25;2.83;;;1.65;;
26042;SDS011;13818;52.156;5.382;2023-03-19T00:06:52;5.93;;;1.70;;
26042;SDS011;13818;52.156;5.382;2023-03-19T00:09:20;4.28;;;1.70;;
26042;SDS011;13818;52.156;5.382;2023-03-19T00:11:47;4.82;;;1.90;;
26042;SDS011;13818;52.156;5.382;2023-03-19T00:14:14;2.90;;;1.52;;
26042;SDS011;13818;52.156;5.382;2023-03-19T00:16:41;4.95;;;2.05;;
26042;SDS011;13818;52.156;5.382;2023-03-19T00:19:08;3.15;;;1.75;;
26042;SDS011;13818;52.156;5.382;2023-03-19T00:21:34;4.28;;;1.88;;
26042;SDS011;13818;52.156;5.382;2023-03-19T00:24:01;4.60;;;1.70;;
26042;SDS011;13818;52.156;5.382;2023-03-19T00:26:29;5.90;;;1.92;;
26042;SDS011;13818;52.156;5.382;2023-03-19T00:28:56;4.90;;;2.03;;
26042;SDS011;13818;52.156;5.382;2023-03-19T00:31:24;5.05;;;2.35;;
26042;SDS011;13818;52.156;5.382;2023-03-19T00:33:52;4.88;;;1.98;;
26042;SDS011;13818;52.156;5.382;2023-03-19T00:36:20;3.55;;;2.00;;
26042;SDS011;13818;52.156;5.382;2023-03-19T00:38:47;5.05;;;2.17;;
26042;SDS011;13818;52.156;5.382;2023-03-19T00:41:14;5.65;;;1.92;;
26042;SDS011;13818;52.156;5.382;2023-03-19T00:43:42;4.25;;;1.88;;
26042;SDS011;13818;52.156;5.382;2023-03-19T00:46:09;3.45;;;1.80;;
26042;SDS011;13818;52.156;5.382;2023-03-19T00:48:36;5.78;;;2.40;;
26042;SDS011;13818;52.156;5.382;2023-03-19T00:51:03;5.40;;;3.03;;
26042;SDS011;13818;52.156;5.382;2023-03-19T00:53:30;2.95;;;1.88;;
26042;SDS011;13818;52.156;5.382;2023-03-19T00:55:56;7.43;;;2.63;;
26042;SDS011;13818;52.156;5.382;2023-03-19T00:58:23;4.60;;;2.17;;
26042;SDS011;13818;52.156;5.382;2023-03-19T01:00:52;5.05;;;2.22;;
26042;SDS011;13818;52.156;5.382;2023-03-19T01:03:19;6.85;;;2.25;;
26042;SDS011;13818;52.156;5.382;2023-03-19T01:05:46;4.65;;;2.40;;
26042;SDS011;13818;52.156;5.382;2023-03-19T01:08:13;4.90;;;2.10;;
26042;SDS011;13818;52.156;5.382;2023-03-19T01:10:40;5.22;;;2.33;;
26042;SDS011;13818;52.156;5.382;2023-03-19T01:13:06;4.55;;;2.40;;
26042;SDS011;13818;52.156;5.382;2023-03-19T01:15:34;4.40;;;2.22;;
26042;SDS011;13818;52.156;5.382;2023-03-19T01:18:03;5.07;;;3.10;;
26042;SDS011;13818;52.156;5.382;2023-03-19T01:20:30;5.70;;;2.45;;
26042;SDS011;13818;52.156;5.382;2023-03-19T01:22:56;5.07;;;2.50;;
26042;SDS011;13818;52.156;5.382;2023-03-19T01:25:23;5.60;;;2.78;;
26042;SDS011;13818;52.156;5.382;2023-03-19T01:27:50;5.75;;;2.63;;
26042;SDS011;13818;52.156;5.382;2023-03-19T01:30:17;4.78;;;2.60;;
26042;SDS011;13818;52.156;5.382;2023-03-19T01:32:44;5.05;;;2.78;;
26042;SDS011;13818;52.156;5.382;2023-03-19T01:35:12;6.30;;;2.72;;
26042;SDS011;13818;52.156;5.382;2023-03-19T01:37:38;7.07;;;2.97;;
26042;SDS011;13818;52.156;5.382;2023-03-19T01:40:06;7.38;;;3.22;;
26042;SDS011;13818;52.156;5.382;2023-03-19T01:42:34;8.73;;;3.10;;
26042;SDS011;13818;52.156;5.382;2023-03-19T01:45:28;8.63;;;3.05;;
26042;SDS011;13818;52.156;5.382;2023-03-19T01:47:57;8.07;;;3.20;;
26042;SDS011;13818;52.156;5.382;2023-03-19T01:50:26;6.60;;;3.28;;
26042;SDS011;13818;52.156;5.382;2023-03-19T01:52:54;6.43;;;3.33;;
26042;SDS011;13818;52.156;5.382;2023-03-19T01:55:20;8.68;;;3.05;;
26042;SDS011;13818;52.156;5.382;2023-03-19T01:57:47;5.13;;;3.25;;
26042;SDS011;13818;52.156;5.382;2023-03-19T02:00:13;6.53;;;3.40;;
26042;SDS011;13818;52.156;5.382;2023-03-19T02:02:40;6.25;;;3.50;;
26042;SDS011;13818;52.156;5.382;2023-03-19T02:05:10;7.40;;;3.40;;
26042;SDS011;13818;52.156;5.382;2023-03-19T02:07:40;9.43;;;4.18;;
26042;SDS011;13818;52.156;5.382;2023-03-19T02:10:11;7.30;;;3.50;;
26042;SDS011;13818;52.156;5.382;2023-03-19T02:12:40;9.95;;;3.65;;
26042;SDS011;13818;52.156;5.382;2023-03-19T02:15:06;6.93;;;4.07;;
26042;SDS011;13818;52.156;5.382;2023-03-19T02:17:33;9.98;;;4.32;;
26042;SDS011;13818;52.156;5.382;2023-03-19T02:20:00;6.85;;;4.10;;
26042;SDS011;13818;52.156;5.382;2023-03-19T02:22:33;7.63;;;4.28;;
26042;SDS011;13818;52.156;5.382;2023-03-19T02:25:08;8.35;;;4.13;;
26042;SDS011;13818;52.156;5.382;2023-03-19T02:27:39;8.43;;;3.67;;
26042;SDS011;13818;52.156;5.382;2023-03-19T02:30:16;6.28;;;3.63;;
26042;SDS011;13818;52.156;5.382;2023-03-19T02:32:44;9.15;;;4.25;;
26042;SDS011;13818;52.156;5.382;2023-03-19T02:35:11;9.70;;;4.28;;
26042;SDS011;13818;52.156;5.382;2023-03-19T02:37:38;9.57;;;4.30;;
26042;SDS011;13818;52.156;5.382;2023-03-19T02:40:05;7.55;;;3.67;;
26042;SDS011;13818;52.156;5.382;2023-03-19T02:42:34;12.77;;;4.20;;
26042;SDS011;13818;52.156;5.382;2023-03-19T02:45:02;8.75;;;4.00;;
26042;SDS011;13818;52.156;5.382;2023-03-19T02:47:29;9.40;;;4.20;;
26042;SDS011;13818;52.156;5.382;2023-03-19T02:49:55;8.60;;;4.72;;
26042;SDS011;13818;52.156;5.382;2023-03-19T02:52:22;7.25;;;4.22;;
26042;SDS011;13818;52.156;5.382;2023-03-19T02:54:48;8.23;;;4.18;;
26042;SDS011;13818;52.156;5.382;2023-03-19T02:57:15;7.00;;;3.95;;
26042;SDS011;13818;52.156;5.382;2023-03-19T02:59:41;9.32;;;4.35;;
26042;SDS011;13818;52.156;5.382;2023-03-19T03:02:09;9.10;;;5.53;;
26042;SDS011;13818;52.156;5.382;2023-03-19T03:04:36;8.63;;;4.97;;
26042;SDS011;13818;52.156;5.382;2023-03-19T03:07:03;9.45;;;5.30;;
26042;SDS011;13818;52.156;5.382;2023-03-19T03:09:30;9.13;;;5.30;;
26042;SDS011;13818;52.156;5.382;2023-03-19T03:11:56;11.35;;;5.47;;
26042;SDS011;13818;52.156;5.382;2023-03-19T03:14:23;9.18;;;5.43;;
26042;SDS011;13818;52.156;5.382;2023-03-19T03:16:49;10.95;;;6.10;;
26042;SDS011;13818;52.156;5.382;2023-03-19T03:19:17;14.00;;;5.55;;
26042;SDS011;13818;52.156;5.382;2023-03-19T03:21:44;11.73;;;6.20;;
26042;SDS011;13818;52.156;5.382;2023-03-19T03:24:10;10.90;;;6.07;;
26042;SDS011;13818;52.156;5.382;2023-03-19T03:26:37;11.77;;;5.72;;
26042;SDS011;13818;52.156;5.382;2023-03-19T03:29:03;12.07;;;6.00;;
26042;SDS011;13818;52.156;5.382;2023-03-19T03:31:30;11.10;;;6.13;;
26042;SDS011;13818;52.156;5.382;2023-03-19T03:33:57;12.07;;;6.32;;
26042;SDS011;13818;52.156;5.382;2023-03-19T03:36:25;13.52;;;6.00;;
26042;SDS011;13818;52.156;5.382;2023-03-19T03:38:52;15.27;;;6.60;;
26042;SDS011;13818;52.156;5.382;2023-03-19T03:41:19;11.32;;;6.15;;
26042;SDS011;13818;52.156;5.382;2023-03-19T03:43:46;13.10;;;6.93;;
26042;SDS011;13818;52.156;5.382;2023-03-19T03:46:12;12.60;;;6.20;;
26042;SDS011;13818;52.156;5.382;2023-03-19T03:48:39;15.60;;;6.35;;
26042;SDS011;13818;52.156;5.382;2023-03-19T03:51:05;13.98;;;6.63;;
26042;SDS011;13818;52.156;5.382;2023-03-19T03:53:33;11.48;;;6.45;;
26042;SDS011;13818;52.156;5.382;2023-03-19T03:55:59;15.63;;;7.38;;
26042;SDS011;13818;52.156;5.382;2023-03-19T03:58:26;12.30;;;6.82;;
26042;SDS011;13818;52.156;5.382;2023-03-19T04:00:53;12.30;;;7.18;;
26042;SDS011;13818;52.156;5.382;2023-03-19T04:03:21;13.73;;;6.70;;
26042;SDS011;13818;52.156;5.382;2023-03-19T04:05:48;15.15;;;7.22;;
26042;SDS011;13818;52.156;5.382;2023-03-19T04:08:14;13.63;;;7.25;;
26042;SDS011;13818;52.156;5.382;2023-03-19T04:10:43;18.33;;;8.48;;
26042;SDS011;13818;52.156;5.382;2023-03-19T04:13:09;17.42;;;7.78;;
26042;SDS011;13818;52.156;5.382;2023-03-19T04:15:37;16.88;;;7.45;;
26042;SDS011;13818;52.156;5.382;2023-03-19T04:18:03;14.05;;;6.85;;
26042;SDS011;13818;52.156;5.382;2023-03-19T04:20:30;15.45;;;6.43;;
26042;SDS011;13818;52.156;5.382;2023-03-19T04:22:56;14.07;;;7.30;;
26042;SDS011;13818;52.156;5.382;2023-03-19T04:25:23;14.57;;;7.07;;
26042;SDS011;13818;52.156;5.382;2023-03-19T04:27:51;16.23;;;7.72;;
26042;SDS011;13818;52.156;5.382;2023-03-19T04:30:17;13.70;;;7.55;;
26042;SDS011;13818;52.156;5.382;2023-03-19T04:32:45;16.65;;;8.00;;
26042;SDS011;13818;52.156;5.382;2023-03-19T04:35:11;15.48;;;7.13;;
26042;SDS011;13818;52.156;5.382;2023-03-19T04:37:38;17.90;;;8.00;;
26042;SDS011;13818;52.156;5.382;2023-03-19T04:40:05;15.23;;;7.30;;
26042;SDS011;13818;52.156;5.382;2023-03-19T04:42:32;15.18;;;7.55;;
26042;SDS011;13818;52.156;5.382;2023-03-19T04:45:00;20.48;;;8.45;;
26042;SDS011;13818;52.156;5.382;2023-03-19T04:47:26;15.25;;;7.47;;
26042;SDS011;13818;52.156;5.382;2023-03-19T04:49:53;20.05;;;8.38;;
26042;SDS011;13818;52.156;5.382;2023-03-19T04:52:19;16.88;;;8.65;;
26042;SDS011;13818;52.156;5.382;2023-03-19T04:54:46;19.38;;;8.05;;
26042;SDS011;13818;52.156;5.382;2023-03-19T04:57:12;20.05;;;8.88;;
26042;SDS011;13818;52.156;5.382;2023-03-19T04:59:39;20.95;;;9.55;;
26042;SDS011;13818;52.156;5.382;2023-03-19T05:02:07;16.98;;;8.68;;
26042;SDS011;13818;52.156;5.382;2023-03-19T05:04:34;17.17;;;8.98;;
26042;SDS011;13818;52.156;5.382;2023-03-19T05:07:01;16.98;;;8.45;;
26042;SDS011;13818;52.156;5.382;2023-03-19T05:09:27;15.98;;;8.30;;
26042;SDS011;13818;52.156;5.382;2023-03-19T05:11:54;20.52;;;8.43;;
26042;SDS011;13818;52.156;5.382;2023-03-19T05:14:21;17.95;;;8.93;;
26042;SDS011;13818;52.156;5.382;2023-03-19T05:16:47;17.50;;;8.63;;
26042;SDS011;13818;52.156;5.382;2023-03-19T05:19:15;18.58;;;8.98;;
26042;SDS011;13818;52.156;5.382;2023-03-19T05:21:42;15.02;;;8.05;;
26042;SDS011;13818;52.156;5.382;2023-03-19T05:24:09;22.98;;;8.80;;
26042;SDS011;13818;52.156;5.382;2023-03-19T05:26:36;21.10;;;9.80;;
26042;SDS011;13818;52.156;5.382;2023-03-19T05:29:02;20.30;;;9.73;;
26042;SDS011;13818;52.156;5.382;2023-03-19T05:31:29;18.85;;;8.20;;
26042;SDS011;13818;52.156;5.382;2023-03-19T05:33:56;16.85;;;9.02;;
26042;SDS011;13818;52.156;5.382;2023-03-19T05:36:23;18.17;;;8.82;;
26042;SDS011;13818;52.156;5.382;2023-03-19T05:38:50;21.35;;;9.23;;
26042;SDS011;13818;52.156;5.382;2023-03-19T05:41:16;20.85;;;8.77;;
26042;SDS011;13818;52.156;5.382;2023-03-19T05:43:43;20.58;;;8.68;;
26042;SDS011;13818;52.156;5.382;2023-03-19T05:46:09;19.08;;;9.40;;
26042;SDS011;13818;52.156;5.382;2023-03-19T05:48:36;18.80;;;9.68;;
26042;SDS011;13818;52.156;5.382;2023-03-19T05:51:03;20.42;;;9.57;;
26042;SDS011;13818;52.156;5.382;2023-03-19T05:53:31;21.73;;;9.02;;
26042;SDS011;13818;52.156;5.382;2023-03-19T05:55:58;21.08;;;9.10;;
26042;SDS011;13818;52.156;5.382;2023-03-19T05:58:24;20.67;;;9.18;;
26042;SDS011;13818;52.156;5.382;2023-03-19T06:00:53;21.63;;;9.65;;
26042;SDS011;13818;52.156;5.382;2023-03-19T06:03:20;18.95;;;8.95;;
26042;SDS011;13818;52.156;5.382;2023-03-19T06:05:47;18.63;;;9.52;;
26042;SDS011;13818;52.156;5.382;2023-03-19T06:08:14;23.67;;;10.75;;
26042;SDS011;13818;52.156;5.382;2023-03-19T06:10:41;24.90;;;11.98;;
26042;SDS011;13818;52.156;5.382;2023-03-19T06:13:08;23.48;;;10.55;;
26042;SDS011;13818;52.156;5.382;2023-03-19T06:15:34;24.13;;;10.25;;
26042;SDS011;13818;52.156;5.382;2023-03-19T06:18:01;22.42;;;10.63;;
26042;SDS011;13818;52.156;5.382;2023-03-19T06:20:27;22.63;;;11.02;;
26042;SDS011;13818;52.156;5.382;2023-03-19T06:22:54;26.00;;;11.27;;
26042;SDS011;13818;52.156;5.382;2023-03-19T06:25:21;26.73;;;11.48;;
26042;SDS011;13818;52.156;5.382;2023-03-19T06:27:48;26.73;;;11.35;;
26042;SDS011;13818;52.156;5.382;2023-03-19T06:30:15;28.42;;;12.48;;
26042;SDS011;13818;52.156;5.382;2023-03-19T06:32:42;26.95;;;11.48;;
26042;SDS011;13818;52.156;5.382;2023-03-19T06:35:08;24.30;;;10.90;;
26042;SDS011;13818;52.156;5.382;2023-03-19T06:37:36;26.38;;;12.40;;
26042;SDS011;13818;52.156;5.382;2023-03-19T06:40:03;25.13;;;11.82;;
26042;SDS011;13818;52.156;5.382;2023-03-19T06:42:30;29.33;;;12.02;;
26042;SDS011;13818;52.156;5.382;2023-03-19T06:44:58;26.67;;;11.43;;
26042;SDS011;13818;52.156;5.382;2023-03-19T06:47:25;27.02;;;11.32;;
26042;SDS011;13818;52.156;5.382;2023-03-19T06:49:52;29.77;;;11.18;;
26042;SDS011;13818;52.156;5.382;2023-03-19T06:52:18;26.35;;;11.93;;
26042;SDS011;13818;52.156;5.382;2023-03-19T06:54:45;26.67;;;11.43;;
26042;SDS011;13818;52.156;5.382;2023-03-19T06:57:11;25.83;;;11.25;;
26042;SDS011;13818;52.156;5.382;2023-03-19T06:59:38;28.55;;;10.80;;
26042;SDS011;13818;52.156;5.382;2023-03-19T07:02:05;29.40;;;10.90;;
26042;SDS011;13818;52.156;5.382;2023-03-19T07:04:34;26.83;;;11.30;;
26042;SDS011;13818;52.156;5.382;2023-03-19T07:07:00;25.58;;;10.90;;
26042;SDS011;13818;52.156;5.382;2023-03-19T07:09:27;29.00;;;12.00;;
26042;SDS011;13818;52.156;5.382;2023-03-19T07:11:53;28.73;;;12.00;;
26042;SDS011;13818;52.156;5.382;2023-03-19T07:14:19;27.23;;;10.77;;
26042;SDS011;13818;52.156;5.382;2023-03-19T07:16:46;29.83;;;12.10;;
26042;SDS011;13818;52.156;5.382;2023-03-19T07:19:14;30.58;;;12.60;;
26042;SDS011;13818;52.156;5.382;2023-03-19T07:21:40;25.92;;;11.43;;
26042;SDS011;13818;52.156;5.382;2023-03-19T07:24:07;27.63;;;10.90;;
26042;SDS011;13818;52.156;5.382;2023-03-19T07:26:33;31.98;;;11.40;;
26042;SDS011;13818;52.156;5.382;2023-03-19T07:29:00;31.38;;;12.45;;
26042;SDS011;13818;52.156;5.382;2023-03-19T07:31:26;42.20;;;13.52;;
26042;SDS011;13818;52.156;5.382;2023-03-19T07:33:53;38.03;;;16.20;;
26042;SDS011;13818;52.156;5.382;2023-03-19T07:36:21;45.05;;;17.98;;
26042;SDS011;13818;52.156;5.382;2023-03-19T07:38:48;47.63;;;17.67;;
26042;SDS011;13818;52.156;5.382;2023-03-19T07:41:15;50.05;;;16.88;;
26042;SDS011;13818;52.156;5.382;2023-03-19T07:43:41;41.15;;;15.80;;
26042;SDS011;13818;52.156;5.382;2023-03-19T07:46:08;39.00;;;15.10;;
26042;SDS011;13818;52.156;5.382;2023-03-19T07:48:35;41.70;;;15.30;;
26042;SDS011;13818;52.156;5.382;2023-03-19T07:51:02;35.58;;;13.77;;
26042;SDS011;13818;52.156;5.382;2023-03-19T07:53:30;31.83;;;12.90;;
26042;SDS011;13818;52.156;5.382;2023-03-19T07:55:56;31.30;;;12.60;;
26042;SDS011;13818;52.156;5.382;2023-03-19T07:58:23;36.47;;;14.48;;
26042;SDS011;13818;52.156;5.382;2023-03-19T08:00:50;36.25;;;13.43;;
26042;SDS011;13818;52.156;5.382;2023-03-19T08:03:17;32.25;;;12.07;;
26042;SDS011;13818;52.156;5.382;2023-03-19T08:05:46;33.20;;;13.32;;
26042;SDS011;13818;52.156;5.382;2023-03-19T08:08:13;34.35;;;12.82;;
26042;SDS011;13818;52.156;5.382;2023-03-19T08:10:41;33.22;;;12.98;;
26042;SDS011;13818;52.156;5.382;2023-03-19T08:13:08;29.83;;;12.48;;
26042;SDS011;13818;52.156;5.382;2023-03-19T08:15:34;34.92;;;12.93;;
26042;SDS011;13818;52.156;5.382;2023-03-19T08:18:02;30.77;;;13.57;;
26042;SDS011;13818;52.156;5.382;2023-03-19T08:20:30;32.85;;;13.02;;
26042;SDS011;13818;52.156;5.382;2023-03-19T08:22:57;30.20;;;13.20;;
26042;SDS011;13818;52.156;5.382;2023-03-19T08:25:24;33.55;;;12.65;;
26042;SDS011;13818;52.156;5.382;2023-03-19T08:27:52;30.65;;;12.27;;
26042;SDS011;13818;52.156;5.382;2023-03-19T08:30:18;34.13;;;13.07;;
26042;SDS011;13818;52.156;5.382;2023-03-19T08:32:45;31.63;;;13.05;;
26042;SDS011;13818;52.156;5.382;2023-03-19T08:35:13;31.13;;;12.93;;
26042;SDS011;13818;52.156;5.382;2023-03-19T08:37:39;33.65;;;13.32;;
26042;SDS011;13818;52.156;5.382;2023-03-19T08:40:06;29.52;;;12.90;;
26042;SDS011;13818;52.156;5.382;2023-03-19T08:42:34;31.73;;;12.15;;
26042;SDS011;13818;52.156;5.382;2023-03-19T08:45:04;35.37;;;12.83;;
26042;SDS011;13818;52.156;5.382;2023-03-19T08:47:31;27.48;;;11.18;;
26042;SDS011;13818;52.156;5.382;2023-03-19T08:49:58;29.00;;;11.52;;
26042;SDS011;13818;52.156;5.382;2023-03-19T08:52:25;26.25;;;11.57;;
26042;SDS011;13818;52.156;5.382;2023-03-19T08:54:51;32.08;;;12.85;;
26042;SDS011;13818;52.156;5.382;2023-03-19T08:57:18;26.60;;;13.07;;
26042;SDS011;13818;52.156;5.382;2023-03-19T08:59:45;31.52;;;13.88;;
26042;SDS011;13818;52.156;5.382;2023-03-19T09:02:13;27.27;;;11.45;;
26042;SDS011;13818;52.156;5.382;2023-03-19T09:04:40;36.10;;;13.32;;
26042;SDS011;13818;52.156;5.382;2023-03-19T09:07:06;26.00;;;12.00;;
26042;SDS011;13818;52.156;5.382;2023-03-19T09:09:37;30.75;;;12.63;;
26042;SDS011;13818;52.156;5.382;2023-03-19T09:12:04;28.80;;;12.23;;
26042;SDS011;13818;52.156;5.382;2023-03-19T09:14:31;31.17;;;12.43;;
26042;SDS011;13818;52.156;5.382;2023-03-19T09:16:58;29.77;;;11.70;;
26042;SDS011;13818;52.156;5.382;2023-03-19T09:19:26;29.10;;;12.98;;
26042;SDS011;13818;52.156;5.382;2023-03-19T09:21:53;27.63;;;11.82;;
26042;SDS011;13818;52.156;5.382;2023-03-19T09:24:19;24.63;;;11.10;;
26042;SDS011;13818;52.156;5.382;2023-03-19T09:26:46;23.90;;;10.25;;
26042;SDS011;13818;52.156;5.382;2023-03-19T09:29:13;28.05;;;11.40;;
26042;SDS011;13818;52.156;5.382;2023-03-19T09:31:40;25.30;;;10.65;;
26042;SDS011;13818;52.156;5.382;2023-03-19T09:34:07;25.65;;;10.48;;
26042;SDS011;13818;52.156;5.382;2023-03-19T09:36:36;22.85;;;9.45;;
26042;SDS011;13818;52.156;5.382;2023-03-19T09:39:03;23.95;;;9.88;;
26042;SDS011;13818;52.156;5.382;2023-03-19T09:41:33;22.70;;;9.73;;
26042;SDS011;13818;52.156;5.382;2023-03-19T09:44:07;26.95;;;9.95;;
26042;SDS011;13818;52.156;5.382;2023-03-19T09:46:39;22.80;;;10.30;;
26042;SDS011;13818;52.156;5.382;2023-03-19T09:49:12;23.63;;;10.32;;
26042;SDS011;13818;52.156;5.382;2023-03-19T09:51:49;26.48;;;11.05;;
26042;SDS011;13818;52.156;5.382;2023-03-19T09:54:28;33.10;;;11.45;;
26042;SDS011;13818;52.156;5.382;2023-03-19T09:56:58;22.77;;;9.65;;
26042;SDS011;13818;52.156;5.382;2023-03-19T09:59:26;27.58;;;11.57;;
26042;SDS011;13818;52.156;5.382;2023-03-19T10:01:56;25.30;;;10.38;;
26042;SDS011;13818;52.156;5.382;2023-03-19T10:07:18;26.00;;;10.27;;
26042;SDS011;13818;52.156;5.382;2023-03-19T10:09:56;22.60;;;9.77;;
26042;SDS011;13818;52.156;5.382;2023-03-19T10:12:38;24.20;;;9.98;;
26042;SDS011;13818;52.156;5.382;2023-03-19T10:17:45;24.95;;;9.70;;
26042;SDS011;13818;52.156;5.382;2023-03-19T10:20:21;26.27;;;9.50;;
26042;SDS011;13818;52.156;5.382;2023-03-19T10:22:58;28.05;;;10.70;;
26042;SDS011;13818;52.156;5.382;2023-03-19T10:25:37;22.27;;;8.90;;
26042;SDS011;13818;52.156;5.382;2023-03-19T10:28:10;21.48;;;8.75;;
26042;SDS011;13818;52.156;5.382;2023-03-19T10:30:40;22.63;;;9.18;;
26042;SDS011;13818;52.156;5.382;2023-03-19T10:33:11;26.20;;;10.05;;
26042;SDS011;13818;52.156;5.382;2023-03-19T10:35:45;25.02;;;9.15;;
26042;SDS011;13818;52.156;5.382;2023-03-19T10:38:17;30.52;;;11.02;;
26042;SDS011;13818;52.156;5.382;2023-03-19T10:40:47;23.88;;;9.95;;
26042;SDS011;13818;52.156;5.382;2023-03-19T10:43:23;28.67;;;10.00;;
26042;SDS011;13818;52.156;5.382;2023-03-19T10:45:52;29.08;;;10.65;;
26042;SDS011;13818;52.156;5.382;2023-03-19T10:48:18;31.70;;;11.02;;
26042;SDS011;13818;52.156;5.382;2023-03-19T10:50:46;28.58;;;10.20;;
26042;SDS011;13818;52.156;5.382;2023-03-19T10:53:24;29.08;;;10.32;;
26042;SDS011;13818;52.156;5.382;2023-03-19T10:55:56;25.02;;;9.85;;
26042;SDS011;13818;52.156;5.382;2023-03-19T10:58:28;29.48;;;10.90;;
26042;SDS011;13818;52.156;5.382;2023-03-19T11:00:56;27.73;;;10.43;;
26042;SDS011;13818;52.156;5.382;2023-03-19T11:03:28;27.52;;;10.55;;
26042;SDS011;13818;52.156;5.382;2023-03-19T11:06:04;25.48;;;9.70;;
26042;SDS011;13818;52.156;5.382;2023-03-19T11:08:42;26.55;;;10.05;;
26042;SDS011;13818;52.156;5.382;2023-03-19T11:14:08;26.67;;;10.15;;
26042;SDS011;13818;52.156;5.382;2023-03-19T11:16:49;21.98;;;9.70;;
26042;SDS011;13818;52.156;5.382;2023-03-19T11:19:21;28.73;;;10.55;;
26042;SDS011;13818;52.156;5.382;2023-03-19T11:24:31;22.55;;;8.68;;
26042;SDS011;13818;52.156;5.382;2023-03-19T11:26:58;21.98;;;7.55;;
26042;SDS011;13818;52.156;5.382;2023-03-19T11:29:27;27.05;;;9.75;;
26042;SDS011;13818;52.156;5.382;2023-03-19T11:31:56;23.52;;;9.18;;
26042;SDS011;13818;52.156;5.382;2023-03-19T11:34:32;22.67;;;8.55;;
26042;SDS011;13818;52.156;5.382;2023-03-19T11:37:10;25.65;;;9.55;;
26042;SDS011;13818;52.156;5.382;2023-03-19T11:39:49;24.80;;;9.05;;
26042;SDS011;13818;52.156;5.382;2023-03-19T11:42:28;23.73;;;9.30;;
26042;SDS011;13818;52.156;5.382;2023-03-19T11:45:09;21.08;;;8.65;;
26042;SDS011;13818;52.156;5.382;2023-03-19T11:47:43;21.83;;;8.05;;
26042;SDS011;13818;52.156;5.382;2023-03-19T11:50:21;20.92;;;8.68;;
26042;SDS011;13818;52.156;5.382;2023-03-19T11:53:02;19.17;;;7.68;;
26042;SDS011;13818;52.156;5.382;2023-03-19T11:55:40;20.15;;;7.63;;
26042;SDS011;13818;52.156;5.382;2023-03-19T12:01:18;22.23;;;9.70;;
26042;SDS011;13818;52.156;5.382;2023-03-19T12:06:52;27.65;;;10.23;;
26042;SDS011;13818;52.156;5.382;2023-03-19T12:09:27;28.23;;;9.50;;
26042;SDS011;13818;52.156;5.382;2023-03-19T12:12:04;26.98;;;10.10;;
26042;SDS011;13818;52.156;5.382;2023-03-19T12:14:43;24.38;;;9.25;;
26042;SDS011;13818;52.156;5.382;2023-03-19T12:17:21;23.95;;;8.80;;
26042;SDS011;13818;52.156;5.382;2023-03-19T12:19:58;24.50;;;9.68;;
26042;SDS011;13818;52.156;5.382;2023-03-19T12:22:38;25.20;;;9.07;;
26042;SDS011;13818;52.156;5.382;2023-03-19T12:25:23;25.55;;;9.27;;
26042;SDS011;13818;52.156;5.382;2023-03-19T12:28:00;24.98;;;9.68;;
26042;SDS011;13818;52.156;5.382;2023-03-19T12:30:35;24.20;;;8.20;;
26042;SDS011;13818;52.156;5.382;2023-03-19T12:33:10;20.13;;;8.18;;
26042;SDS011;13818;52.156;5.382;2023-03-19T12:35:46;27.70;;;8.93;;
26042;SDS011;13818;52.156;5.382;2023-03-19T12:38:16;28.23;;;9.30;;
26042;SDS011;13818;52.156;5.382;2023-03-19T12:40:48;24.30;;;9.45;;
26042;SDS011;13818;52.156;5.382;2023-03-19T12:43:20;27.17;;;9.18;;
26042;SDS011;13818;52.156;5.382;2023-03-19T12:45:51;24.73;;;8.18;;
26042;SDS011;13818;52.156;5.382;2023-03-19T12:48:23;24.33;;;8.70;;
26042;SDS011;13818;52.156;5.382;2023-03-19T12:50:53;27.60;;;8.88;;
26042;SDS011;13818;52.156;5.382;2023-03-19T12:53:27;22.90;;;8.30;;
26042;SDS011;13818;52.156;5.382;2023-03-19T12:56:01;21.10;;;7.60;;
26042;SDS011;13818;52.156;5.382;2023-03-19T12:58:38;29.77;;;8.48;;
26042;SDS011;13818;52.156;5.382;2023-03-19T13:03:45;25.67;;;8.15;;
26042;SDS011;13818;52.156;5.382;2023-03-19T13:06:20;27.55;;;8.20;;
26042;SDS011;13818;52.156;5.382;2023-03-19T13:08:51;30.92;;;9.38;;
26042;SDS011;13818;52.156;5.382;2023-03-19T13:11:28;25.63;;;8.55;;
26042;SDS011;13818;52.156;5.382;2023-03-19T13:14:05;28.35;;;9.07;;
26042;SDS011;13818;52.156;5.382;2023-03-19T13:16:38;25.08;;;8.45;;
26042;SDS011;13818;52.156;5.382;2023-03-19T13:19:12;21.08;;;7.50;;
26042;SDS011;13818;52.156;5.382;2023-03-19T13:21:47;24.35;;;8.15;;
26042;SDS011;13818;52.156;5.382;2023-03-19T13:24:19;26.35;;;8.80;;
26042;SDS011;13818;52.156;5.382;2023-03-19T13:26:48;19.88;;;7.38;;
26042;SDS011;13818;52.156;5.382;2023-03-19T13:29:18;23.95;;;7.80;;
26042;SDS011;13818;52.156;5.382;2023-03-19T13:31:46;19.33;;;7.20;;
26042;SDS011;13818;52.156;5.382;2023-03-19T13:34:18;21.98;;;7.07;;
26042;SDS011;13818;52.156;5.382;2023-03-19T13:36:47;22.45;;;6.97;;
26042;SDS011;13818;52.156;5.382;2023-03-19T13:39:19;24.65;;;7.93;;
26042;SDS011;13818;52.156;5.382;2023-03-19T13:41:51;28.35;;;8.68;;
26042;SDS011;13818;52.156;5.382;2023-03-19T13:44:33;26.05;;;8.50;;
26042;SDS011;13818;52.156;5.382;2023-03-19T13:50:20;21.38;;;7.35;;
26042;SDS011;13818;52.156;5.382;2023-03-19T13:52:50;27.00;;;8.63;;
26042;SDS011;13818;52.156;5.382;2023-03-19T13:55:43;22.60;;;8.05;;
26042;SDS011;13818;52.156;5.382;2023-03-19T13:58:14;23.38;;;7.78;;
26042;SDS011;13818;52.156;5.382;2023-03-19T14:00:59;21.92;;;7.25;;
26042;SDS011;13818;52.156;5.382;2023-03-19T14:03:27;26.90;;;8.25;;
26042;SDS011;13818;52.156;5.382;2023-03-19T14:05:56;23.00;;;8.32;;
26042;SDS011;13818;52.156;5.382;2023-03-19T14:08:23;27.35;;;8.48;;
26042;SDS011;13818;52.156;5.382;2023-03-19T14:10:52;23.85;;;7.72;;
26042;SDS011;13818;52.156;5.382;2023-03-19T14:13:26;25.08;;;8.18;;
26042;SDS011;13818;52.156;5.382;2023-03-19T14:16:03;27.23;;;9.48;;
26042;SDS011;13818;52.156;5.382;2023-03-19T14:18:33;22.00;;;8.57;;
26042;SDS011;13818;52.156;5.382;2023-03-19T14:21:08;24.23;;;7.70;;
26042;SDS011;13818;52.156;5.382;2023-03-19T14:23:38;23.50;;;8.18;;
26042;SDS011;13818;52.156;5.382;2023-03-19T14:26:12;23.02;;;8.18;;
26042;SDS011;13818;52.156;5.382;2023-03-19T14:28:45;25.10;;;7.60;;
26042;SDS011;13818;52.156;5.382;2023-03-19T14:31:20;24.23;;;8.00;;
26042;SDS011;13818;52.156;5.382;2023-03-19T14:33:52;22.27;;;7.43;;
26042;SDS011;13818;52.156;5.382;2023-03-19T14:36:24;20.42;;;6.85;;
26042;SDS011;13818;52.156;5.382;2023-03-19T14:38:53;17.25;;;6.97;;
26042;SDS011;13818;52.156;5.382;2023-03-19T14:41:22;19.90;;;7.75;;
26042;SDS011;13818;52.156;5.382;2023-03-19T14:43:59;17.85;;;7.68;;
26042;SDS011;13818;52.156;5.382;2023-03-19T14:46:52;24.88;;;8.13;;
26042;SDS011;13818;52.156;5.382;2023-03-19T14:49:39;19.05;;;6.63;;
26042;SDS011;13818;52.156;5.382;2023-03-19T14:52:29;18.33;;;7.68;;
26042;SDS011;13818;52.156;5.382;2023-03-19T14:54:57;23.30;;;8.30;;
26042;SDS011;13818;52.156;5.382;2023-03-19T14:57:25;18.55;;;7.05;;
26042;SDS011;13818;52.156;5.382;2023-03-19T14:59:53;20.60;;;7.70;;
26042;SDS011;13818;52.156;5.382;2023-03-19T15:02:31;23.05;;;8.27;;
26042;SDS011;13818;52.156;5.382;2023-03-19T15:05:01;22.27;;;7.32;;
26042;SDS011;13818;52.156;5.382;2023-03-19T15:07:31;20.60;;;8.38;;
26042;SDS011;13818;52.156;5.382;2023-03-19T15:10:03;26.25;;;9.52;;